createdAt,value
2022-09-05T00:00:32.425Z,0.00
2022-09-05T00:01:32.396Z,0.00
2022-09-05T00:02:32.540Z,0.00
2022-09-05T00:03:32.504Z,0.00
2022-09-05T00:04:32.445Z,0.00
2022-09-05T00:05:32.352Z,0.00
2022-09-05T00:06:32.355Z,0.00
2022-09-05T00:07:59.427Z,0.00
2022-09-05T00:08:33.321Z,0.00
2022-09-05T00:09:32.309Z,0.00
2022-09-05T00:10:37.575Z,0.00
2022-09-05T00:11:41.324Z,0.00
2022-09-05T00:12:33.272Z,0.00
2022-09-05T00:13:32.269Z,0.00
2022-09-05T00:14:34.332Z,0.00
2022-09-05T00:15:33.239Z,0.00
2022-09-05T00:16:32.294Z,0.00
2022-09-05T00:17:45.865Z,0.00
2022-09-05T00:22:23.763Z,0.00
2022-09-05T00:24:23.322Z,0.00
2022-09-05T00:24:25.691Z,0.00
2022-09-05T00:24:25.767Z,0.00
2022-09-05T00:24:30.375Z,0.00
2022-09-05T00:24:35.107Z,0.00
2022-09-05T00:24:50.255Z,0.00
2022-09-05T00:25:33.876Z,0.00
2022-09-05T00:26:32.124Z,0.00
2022-09-05T00:27:32.109Z,0.00
2022-09-05T00:28:32.107Z,0.00
2022-09-05T00:29:44.954Z,0.00
2022-09-05T00:31:07.223Z,0.00
2022-09-05T00:31:53.910Z,0.00
2022-09-05T00:32:33.104Z,0.00
2022-09-05T00:33:32.265Z,0.00
2022-09-05T00:34:38.762Z,0.00
2022-09-05T00:35:33.021Z,0.00
2022-09-05T00:36:32.011Z,0.00
2022-09-05T00:37:32.003Z,0.00
2022-09-05T00:38:36.941Z,0.00
2022-09-05T00:39:33.040Z,0.00
2022-09-05T00:40:32.013Z,0.00
2022-09-05T00:41:34.216Z,0.00
2022-09-05T00:42:31.946Z,0.00
2022-09-05T00:43:31.936Z,0.00
2022-09-05T00:44:31.927Z,0.00
2022-09-05T00:45:31.920Z,0.00
2022-09-05T00:46:32.290Z,0.00
2022-09-05T00:47:31.891Z,0.00
2022-09-05T00:48:31.880Z,0.00
2022-09-05T00:49:31.869Z,0.00
2022-09-05T00:50:31.858Z,0.00
2022-09-05T00:51:34.864Z,0.00
2022-09-05T00:52:31.835Z,0.00
2022-09-05T00:53:31.827Z,0.00
2022-09-05T00:54:40.450Z,0.00
2022-09-05T00:55:32.804Z,0.00
2022-09-05T00:56:31.792Z,0.00
2022-09-05T00:57:31.810Z,0.00
2022-09-05T00:58:34.078Z,0.00
2022-09-05T00:59:31.758Z,0.00
2022-09-05T01:00:31.751Z,0.00
2022-09-05T01:01:31.855Z,0.00
2022-09-05T01:02:33.335Z,0.00
2022-09-05T01:03:32.737Z,0.00
2022-09-05T01:04:31.705Z,0.00
2022-09-05T01:05:31.693Z,0.00
2022-09-05T01:06:31.684Z,0.00
2022-09-05T01:07:31.672Z,0.00
2022-09-05T01:08:31.664Z,0.00
2022-09-05T01:09:31.656Z,0.00
2022-09-05T01:10:31.641Z,0.00
2022-09-05T01:11:31.629Z,0.00
2022-09-05T01:12:31.623Z,0.00
2022-09-05T01:13:31.605Z,0.00
2022-09-05T01:14:31.595Z,0.00
2022-09-05T01:15:32.759Z,0.00
2022-09-05T01:16:31.576Z,0.00
2022-09-05T01:17:31.561Z,0.00
2022-09-05T01:18:31.552Z,0.00
2022-09-05T01:19:31.540Z,0.00
2022-09-05T01:20:33.517Z,0.00
2022-09-05T01:21:31.528Z,0.00
2022-09-05T01:22:31.507Z,0.00
2022-09-05T01:23:31.496Z,0.00
2022-09-05T01:24:31.485Z,0.00
2022-09-05T01:25:31.474Z,0.00
2022-09-05T01:26:31.467Z,0.00
2022-09-05T01:28:02.507Z,0.00
2022-09-05T01:29:14.991Z,0.00
2022-09-05T01:29:32.430Z,0.00
2022-09-05T01:30:31.839Z,0.00
2022-09-05T01:31:31.452Z,0.00
2022-09-05T01:32:31.397Z,0.00
2022-09-05T01:33:31.416Z,0.00
2022-09-05T01:34:32.318Z,0.00
2022-09-05T01:35:31.367Z,0.00
2022-09-05T01:36:31.354Z,0.00
2022-09-05T01:37:33.892Z,0.00
2022-09-05T01:38:31.333Z,0.00
2022-09-05T01:40:14.472Z,0.00
2022-09-05T01:40:32.360Z,0.00
2022-09-05T01:41:31.361Z,0.00
2022-09-05T01:42:31.719Z,0.00
2022-09-05T01:43:31.279Z,0.00
2022-09-05T01:44:31.267Z,0.00
2022-09-05T01:45:39.532Z,0.00
2022-09-05T01:46:32.337Z,0.00
2022-09-05T01:47:31.441Z,0.00
2022-09-05T01:48:31.222Z,0.00
2022-09-05T01:49:31.211Z,0.00
2022-09-05T01:50:31.200Z,0.00
2022-09-05T01:51:31.428Z,0.00
2022-09-05T01:52:31.179Z,0.00
2022-09-05T01:53:31.167Z,0.00
2022-09-05T01:54:31.156Z,0.00
2022-09-05T01:55:31.146Z,0.00
2022-09-05T01:56:31.134Z,0.00
2022-09-05T01:57:31.130Z,0.00
2022-09-05T01:58:32.015Z,0.00
2022-09-05T01:59:31.102Z,0.00
2022-09-05T02:00:31.092Z,0.00
2022-09-05T02:01:32.975Z,0.00
2022-09-05T02:02:31.178Z,0.00
2022-09-05T02:03:31.066Z,0.00
2022-09-05T02:04:31.047Z,0.00
2022-09-05T02:05:47.536Z,0.00
2022-09-05T02:06:32.026Z,0.00
2022-09-05T02:07:31.821Z,0.00
2022-09-05T02:08:31.005Z,0.00
2022-09-05T02:09:31.023Z,0.00
2022-09-05T02:10:30.981Z,0.00
2022-09-05T02:11:36.071Z,0.00
2022-09-05T02:12:31.960Z,0.00
2022-09-05T02:13:30.949Z,0.00
2022-09-05T02:14:34.466Z,0.00
2022-09-05T02:15:30.998Z,0.00
2022-09-05T02:16:30.914Z,0.00
2022-09-05T02:17:49.692Z,0.00
2022-09-05T02:18:31.892Z,0.00
2022-09-05T02:19:30.882Z,0.00
2022-09-05T02:20:30.871Z,0.00
2022-09-05T02:21:30.867Z,0.00
2022-09-05T02:22:30.855Z,0.00
2022-09-05T02:23:42.054Z,0.00
2022-09-05T02:24:31.826Z,0.00
2022-09-05T02:26:01.332Z,0.00
2022-09-05T02:26:31.811Z,0.00
2022-09-05T02:28:03.750Z,0.00
2022-09-05T02:28:31.785Z,0.00
2022-09-05T02:29:30.771Z,0.00
2022-09-05T02:30:30.825Z,0.00
2022-09-05T02:31:30.791Z,0.00
2022-09-05T02:32:30.746Z,0.00
2022-09-05T02:33:30.729Z,0.00
2022-09-05T02:34:30.721Z,0.00
2022-09-05T02:35:30.713Z,0.00
2022-09-05T02:36:30.698Z,0.00
2022-09-05T02:37:54.581Z,0.00
2022-09-05T02:43:35.353Z,0.00
2022-09-05T02:45:01.725Z,0.00
2022-09-05T02:45:08.711Z,0.00
2022-09-05T02:45:08.847Z,0.00
2022-09-05T02:45:10.558Z,0.00
2022-09-05T02:45:11.606Z,0.00
2022-09-05T02:45:13.701Z,0.00
2022-09-05T02:45:32.070Z,0.00
2022-09-05T02:46:30.753Z,0.00
2022-09-05T02:47:30.578Z,0.00
2022-09-05T02:48:30.567Z,0.00
2022-09-05T02:51:47.430Z,0.00
2022-09-05T02:53:59.257Z,0.00
2022-09-05T02:57:24.898Z,0.00
2022-09-05T02:57:27.800Z,0.00
2022-09-05T02:57:34.043Z,0.00
2022-09-05T02:57:35.751Z,0.00
2022-09-05T02:57:36.863Z,0.00
2022-09-05T02:57:41.754Z,0.00
2022-09-05T02:58:05.360Z,0.00
2022-09-05T02:58:53.292Z,0.00
2022-09-05T02:59:36.318Z,0.00
2022-09-05T03:00:31.432Z,0.00
2022-09-05T03:01:30.461Z,0.00
2022-09-05T03:02:30.472Z,0.00
2022-09-05T03:03:30.403Z,0.00
2022-09-05T03:04:30.389Z,0.00
2022-09-05T03:05:30.377Z,0.00
2022-09-05T03:06:35.049Z,0.00
2022-09-05T03:07:31.360Z,0.00
2022-09-05T03:08:30.345Z,0.00
2022-09-05T03:09:30.334Z,0.00
2022-09-05T03:10:53.365Z,0.00
2022-09-05T03:11:31.313Z,0.00
2022-09-05T03:12:30.301Z,0.00
2022-09-05T03:13:30.295Z,0.00
2022-09-05T03:14:30.280Z,0.00
2022-09-05T03:15:30.266Z,0.00
2022-09-05T03:16:30.281Z,0.00
2022-09-05T03:17:30.247Z,0.00
2022-09-05T03:18:30.236Z,0.00
2022-09-05T03:19:30.256Z,0.00
2022-09-05T03:20:30.213Z,0.00
2022-09-05T03:21:30.204Z,0.00
2022-09-05T03:22:33.696Z,0.00
2022-09-05T03:23:33.333Z,0.00
2022-09-05T03:24:30.171Z,0.00
2022-09-05T03:25:30.179Z,0.00
2022-09-05T03:26:30.148Z,0.00
2022-09-05T03:27:30.136Z,0.00
2022-09-05T03:28:30.126Z,0.00
2022-09-05T03:29:30.117Z,0.00
2022-09-05T03:30:30.199Z,0.00
2022-09-05T03:31:30.147Z,0.00
2022-09-05T03:32:30.082Z,0.00
2022-09-05T03:33:30.071Z,0.00
2022-09-05T03:34:30.061Z,0.00
2022-09-05T03:35:30.052Z,0.00
2022-09-05T03:36:30.038Z,0.00
2022-09-05T03:37:31.703Z,0.00
2022-09-05T03:38:30.018Z,0.00
2022-09-05T03:39:30.074Z,0.00
2022-09-05T03:40:30.000Z,0.00
2022-09-05T03:41:33.902Z,0.00
2022-09-05T03:42:31.300Z,0.00
2022-09-05T03:43:29.963Z,0.00
2022-09-05T03:44:29.950Z,0.00
2022-09-05T03:45:37.402Z,0.00
2022-09-05T03:46:31.007Z,0.00
2022-09-05T03:47:29.920Z,0.00
2022-09-05T03:48:29.979Z,0.00
2022-09-05T03:52:42.848Z,0.00
2022-09-05T03:57:04.645Z,0.00
2022-09-05T03:57:05.076Z,0.00
2022-09-05T03:57:12.691Z,0.00
2022-09-05T03:57:13.117Z,0.00
2022-09-05T03:57:15.325Z,0.00
2022-09-05T03:57:15.327Z,0.00
2022-09-05T03:57:26.576Z,0.00
2022-09-05T03:57:41.746Z,0.00
2022-09-05T03:58:55.361Z,0.00
2022-09-05T03:59:30.805Z,0.00
2022-09-05T04:00:29.774Z,0.00
2022-09-05T04:04:49.905Z,4.00
2022-09-05T04:08:06.160Z,4.00
2022-09-05T04:08:06.970Z,4.00
2022-09-05T04:08:10.405Z,0.00
2022-09-05T04:08:13.866Z,0.00
2022-09-05T04:08:14.987Z,4.00
2022-09-05T04:08:19.740Z,4.00
2022-09-05T04:08:41.843Z,4.00
2022-09-05T04:09:49.338Z,4.00
2022-09-05T04:10:30.798Z,8.00
2022-09-05T04:11:29.662Z,4.00
2022-09-05T04:12:29.646Z,8.00
2022-09-05T04:13:29.632Z,8.00
2022-09-05T04:14:29.624Z,8.00
2022-09-05T04:15:29.613Z,8.00
2022-09-05T04:16:29.624Z,12.00
2022-09-05T04:17:29.595Z,12.00
2022-09-05T04:18:33.081Z,12.00
2022-09-05T04:19:29.566Z,16.00
2022-09-05T04:20:29.555Z,20.00
2022-09-05T04:21:29.549Z,20.00
2022-09-05T04:22:29.533Z,20.00
2022-09-05T04:23:29.528Z,24.00
2022-09-05T04:24:29.514Z,24.00
2022-09-05T04:25:29.501Z,28.00
2022-09-05T04:26:29.489Z,28.00
2022-09-05T04:27:29.478Z,32.00
2022-09-05T04:28:29.470Z,36.00
2022-09-05T04:29:29.478Z,36.00
2022-09-05T04:30:39.544Z,44.00
2022-09-05T04:31:30.488Z,44.00
2022-09-05T04:32:29.471Z,48.00
2022-09-05T04:33:35.947Z,48.00
2022-09-05T04:34:30.430Z,52.00
2022-09-05T04:35:29.398Z,60.00
2022-09-05T04:36:29.379Z,60.00
2022-09-05T04:37:29.369Z,64.00
2022-09-05T04:38:30.357Z,72.00
2022-09-05T04:39:29.401Z,76.00
2022-09-05T04:40:32.763Z,80.00
2022-09-05T04:41:39.049Z,84.00
2022-09-05T04:42:30.313Z,88.00
2022-09-05T04:43:29.303Z,92.00
2022-09-05T04:44:29.292Z,96.00
2022-09-05T04:45:29.346Z,104.00
2022-09-05T04:46:29.315Z,108.00
2022-09-05T04:47:29.260Z,112.00
2022-09-05T04:48:29.248Z,120.00
2022-09-05T04:49:29.239Z,124.00
2022-09-05T04:50:37.787Z,128.00
2022-09-05T04:51:30.221Z,136.00
2022-09-05T04:52:31.726Z,140.00
2022-09-05T04:53:29.194Z,148.00
2022-09-05T04:54:30.197Z,152.00
2022-09-05T04:55:29.172Z,160.00
2022-09-05T04:56:29.161Z,164.00
2022-09-05T04:57:29.171Z,172.00
2022-09-05T04:59:29.343Z,176.00
2022-09-05T05:05:36.462Z,184.00
2022-09-05T05:06:04.194Z,196.00
2022-09-05T05:06:04.826Z,192.00
2022-09-05T05:06:08.722Z,224.00
2022-09-05T05:06:09.238Z,208.00
2022-09-05T05:06:12.049Z,204.00
2022-09-05T05:06:14.483Z,216.00
2022-09-05T05:06:42.238Z,232.00
2022-09-05T05:07:30.137Z,240.00
2022-09-05T05:08:38.355Z,248.00
2022-09-05T05:09:30.018Z,252.00
2022-09-05T05:12:02.827Z,264.00
2022-09-05T05:17:55.705Z,272.00
2022-09-05T05:17:56.775Z,280.00
2022-09-05T05:18:02.898Z,288.00
2022-09-05T05:18:03.731Z,292.00
2022-09-05T05:18:07.468Z,300.00
2022-09-05T05:18:09.410Z,308.00
2022-09-05T05:18:14.831Z,312.00
2022-09-05T05:18:42.467Z,316.00
2022-09-05T05:19:29.964Z,324.00
2022-09-05T05:20:41.426Z,332.00
2022-09-05T05:21:29.885Z,344.00
2022-09-05T05:22:28.877Z,348.00
2022-09-05T05:23:28.864Z,356.00
2022-09-05T05:24:28.859Z,360.00
2022-09-05T05:25:28.853Z,364.00
2022-09-05T05:26:28.833Z,364.00
2022-09-05T05:27:28.821Z,372.00
2022-09-05T05:28:28.974Z,376.00
2022-09-05T05:29:28.801Z,376.00
2022-09-05T05:30:28.789Z,376.00
2022-09-05T05:31:28.942Z,372.00
2022-09-05T05:32:44.866Z,372.00
2022-09-05T05:33:29.754Z,372.00
2022-09-05T05:34:28.745Z,376.00
2022-09-05T05:35:28.735Z,372.00
2022-09-05T05:36:28.728Z,376.00
2022-09-05T05:37:28.730Z,376.00
2022-09-05T05:38:28.703Z,372.00
2022-09-05T05:39:28.766Z,372.00
2022-09-05T05:40:28.811Z,368.00
2022-09-05T05:41:28.668Z,368.00
2022-09-05T05:42:28.658Z,360.00
2022-09-05T05:43:28.651Z,352.00
2022-09-05T05:44:28.634Z,348.00
2022-09-05T05:45:28.627Z,340.00
2022-09-05T05:46:28.658Z,328.00
2022-09-05T05:47:31.627Z,316.00
2022-09-05T05:48:28.590Z,304.00
2022-09-05T05:49:28.585Z,300.00
2022-09-05T05:50:28.570Z,296.00
2022-09-05T05:51:47.548Z,296.00
2022-09-05T05:52:29.546Z,300.00
2022-09-05T05:53:36.295Z,300.00
2022-09-05T05:54:29.534Z,304.00
2022-09-05T05:55:50.647Z,316.00
2022-09-05T05:56:29.506Z,320.00
2022-09-05T05:57:28.491Z,332.00
2022-09-05T05:58:32.664Z,344.00
2022-09-05T05:59:28.472Z,356.00
2022-09-05T06:00:28.481Z,364.00
2022-09-05T06:01:38.159Z,372.00
2022-09-05T06:02:29.589Z,372.00
2022-09-05T06:03:28.523Z,368.00
2022-09-05T06:04:28.414Z,368.00
2022-09-05T06:05:28.405Z,364.00
2022-09-05T06:06:28.400Z,360.00
2022-09-05T06:07:28.381Z,360.00
2022-09-05T06:11:00.945Z,364.00
2022-09-05T06:14:46.645Z,376.00
2022-09-05T06:14:51.767Z,416.00
2022-09-05T06:14:52.868Z,396.00
2022-09-05T06:15:00.802Z,476.00
2022-09-05T06:15:06.398Z,500.00
2022-09-05T06:15:06.399Z,440.00
2022-09-05T06:15:29.760Z,528.00
2022-09-05T06:16:28.341Z,560.00
2022-09-05T06:17:28.619Z,584.00
2022-09-05T06:18:28.261Z,596.00
2022-09-05T06:19:28.915Z,604.00
2022-09-05T06:22:06.198Z,604.00
2022-09-05T06:22:09.227Z,600.00
2022-09-05T06:22:29.223Z,600.00
2022-09-05T06:23:39.877Z,576.00
2022-09-05T06:24:29.197Z,576.00
2022-09-05T06:25:28.190Z,576.00
2022-09-05T06:26:28.174Z,576.00
2022-09-05T06:27:28.165Z,568.00
2022-09-05T06:28:28.159Z,572.00
2022-09-05T06:29:34.310Z,568.00
2022-09-05T06:30:29.129Z,572.00
2022-09-05T06:31:33.752Z,572.00
2022-09-05T06:32:29.107Z,576.00
2022-09-05T06:33:28.101Z,572.00
2022-09-05T06:34:35.305Z,576.00
2022-09-05T06:35:29.081Z,568.00
2022-09-05T06:36:28.069Z,572.00
2022-09-05T06:37:28.054Z,580.00
2022-09-05T06:38:28.044Z,584.00
2022-09-05T06:39:28.069Z,596.00
2022-09-05T06:40:31.909Z,600.00
2022-09-05T06:41:28.009Z,608.00
2022-09-05T06:42:42.733Z,616.00
2022-09-05T06:43:28.986Z,624.00
2022-09-05T06:44:27.978Z,632.00
2022-09-05T06:45:28.901Z,652.00
2022-09-05T06:46:54.450Z,664.00
2022-09-05T06:47:33.749Z,672.00
2022-09-05T06:48:46.020Z,676.00
2022-09-05T06:49:37.149Z,680.00
2022-09-05T06:50:28.961Z,688.00
2022-09-05T06:51:27.900Z,692.00
2022-09-05T06:52:30.173Z,688.00
2022-09-05T06:53:27.898Z,688.00
2022-09-05T06:54:27.872Z,684.00
2022-09-05T06:55:27.855Z,680.00
2022-09-05T06:56:27.845Z,680.00
2022-09-05T06:57:27.835Z,680.00
2022-09-05T06:58:27.831Z,684.00
2022-09-05T06:59:27.812Z,684.00
2022-09-05T07:00:27.802Z,676.00
2022-09-05T07:01:57.900Z,672.00
2022-09-05T07:02:58.413Z,672.00
2022-09-05T07:03:29.031Z,672.00
2022-09-05T07:04:53.625Z,676.00
2022-09-05T07:05:39.736Z,676.00
2022-09-05T07:07:01.864Z,676.00
2022-09-05T07:07:28.725Z,676.00
2022-09-05T07:08:35.187Z,680.00
2022-09-05T07:09:28.984Z,680.00
2022-09-05T07:10:38.429Z,688.00
2022-09-05T07:11:28.682Z,692.00
2022-09-05T07:12:27.804Z,696.00
2022-09-05T07:13:27.660Z,700.00
2022-09-05T07:14:27.651Z,696.00
2022-09-05T07:15:27.643Z,696.00
2022-09-05T07:16:38.142Z,688.00
2022-09-05T07:17:28.615Z,696.00
2022-09-05T07:18:27.604Z,700.00
2022-09-05T07:19:27.757Z,712.00
2022-09-05T07:20:27.582Z,720.00
2022-09-05T07:21:27.578Z,736.00
2022-09-05T07:22:46.466Z,744.00
2022-09-05T07:23:54.802Z,752.00
2022-09-05T07:24:54.471Z,764.00
2022-09-05T07:25:30.341Z,764.00
2022-09-05T07:26:51.819Z,768.00
2022-09-05T07:27:28.504Z,776.00
2022-09-05T07:28:30.236Z,784.00
2022-09-05T07:29:27.876Z,800.00
2022-09-05T07:30:27.477Z,812.00
2022-09-05T07:31:38.059Z,832.00
2022-09-05T07:32:28.463Z,844.00
2022-09-05T07:33:27.441Z,856.00
2022-09-05T07:34:27.430Z,860.00
2022-09-05T07:35:27.420Z,880.00
2022-09-05T07:36:27.408Z,884.00
2022-09-05T07:37:27.395Z,892.00
2022-09-05T07:38:39.797Z,896.00
2022-09-05T07:39:29.400Z,904.00
2022-09-05T07:40:27.445Z,908.00
2022-09-05T07:41:27.352Z,908.00
2022-09-05T07:42:27.344Z,908.00
2022-09-05T07:43:27.447Z,908.00
2022-09-05T07:44:27.327Z,904.00
2022-09-05T07:45:27.399Z,896.00
2022-09-05T07:46:27.299Z,892.00
2022-09-05T07:47:27.288Z,900.00
2022-09-05T07:48:34.585Z,904.00
2022-09-05T07:49:28.275Z,908.00
2022-09-05T07:54:18.123Z,912.00
2022-09-05T07:56:33.358Z,908.00
2022-09-05T07:56:47.922Z,896.00
2022-09-05T07:56:50.997Z,852.00
2022-09-05T07:56:59.248Z,836.00
2022-09-05T07:56:59.808Z,844.00
2022-09-05T07:57:05.037Z,872.00
2022-09-05T07:57:31.841Z,832.00
2022-09-05T07:58:27.166Z,820.00
2022-09-05T07:59:27.156Z,812.00
2022-09-05T08:00:29.422Z,812.00
2022-09-05T08:01:27.194Z,816.00
2022-09-05T08:02:27.135Z,824.00
2022-09-05T08:03:27.112Z,844.00
2022-09-05T08:04:27.100Z,872.00
2022-09-05T08:05:34.549Z,908.00
2022-09-05T08:06:58.589Z,936.00
2022-09-05T08:07:48.784Z,960.00
2022-09-05T08:08:28.055Z,984.00
2022-09-05T08:10:06.442Z,992.00
2022-09-05T08:10:31.008Z,988.00
2022-09-05T08:11:27.906Z,984.00
2022-09-05T08:12:27.871Z,976.00
2022-09-05T08:13:27.461Z,976.00
2022-09-05T08:14:40.733Z,952.00
2022-09-05T08:15:27.978Z,940.00
2022-09-05T08:16:28.007Z,932.00
2022-09-05T08:17:30.052Z,928.00
2022-09-05T08:18:26.954Z,924.00
2022-09-05T08:19:26.937Z,928.00
2022-09-05T08:20:26.925Z,916.00
2022-09-05T08:21:27.697Z,916.00
2022-09-05T08:22:26.905Z,932.00
2022-09-05T08:23:26.896Z,924.00
2022-09-05T08:24:26.895Z,912.00
2022-09-05T08:25:27.591Z,908.00
2022-09-05T08:26:27.871Z,872.00
2022-09-05T08:27:26.852Z,820.00
2022-09-05T08:28:37.496Z,764.00
2022-09-05T08:29:27.834Z,776.00
2022-09-05T08:30:28.122Z,776.00
2022-09-05T08:31:26.881Z,808.00
2022-09-05T08:32:26.794Z,852.00
2022-09-05T08:33:26.789Z,900.00
2022-09-05T08:34:32.739Z,956.00
2022-09-05T08:35:27.766Z,960.00
2022-09-05T08:36:26.750Z,976.00
2022-09-05T08:37:26.739Z,960.00
2022-09-05T08:38:26.779Z,980.00
2022-09-05T08:39:27.757Z,1004.00
2022-09-05T08:40:26.770Z,1024.00
2022-09-05T08:41:50.061Z,1024.00
2022-09-05T08:42:27.687Z,1004.00
2022-09-05T08:44:58.208Z,1004.00
2022-09-05T08:46:42.970Z,1060.00
2022-09-05T08:46:43.071Z,1072.00
2022-09-05T08:46:43.162Z,1028.00
2022-09-05T08:47:27.691Z,1092.00
2022-09-05T08:48:26.621Z,1116.00
2022-09-05T08:49:37.960Z,1148.00
2022-09-05T08:50:27.602Z,1176.00
2022-09-05T08:51:26.588Z,1192.00
2022-09-05T08:52:26.583Z,1204.00
2022-09-05T08:53:45.535Z,1196.00
2022-09-05T08:54:27.552Z,1200.00
2022-09-05T08:55:26.543Z,1188.00
2022-09-05T08:56:26.533Z,1140.00
2022-09-05T08:57:26.524Z,1092.00
2022-09-05T08:58:26.517Z,1072.00
2022-09-05T08:59:31.741Z,936.00
2022-09-05T09:00:31.380Z,832.00
2022-09-05T09:01:26.542Z,828.00
2022-09-05T09:02:47.490Z,868.00
2022-09-05T09:03:27.758Z,884.00
2022-09-05T09:05:01.009Z,948.00
2022-09-05T09:05:40.438Z,980.00
2022-09-05T09:06:27.823Z,988.00
2022-09-05T09:07:51.600Z,1096.00
2022-09-05T09:08:27.398Z,1132.00
2022-09-05T09:09:26.414Z,1180.00
2022-09-05T09:10:26.415Z,1220.00
2022-09-05T09:11:26.367Z,1296.00
2022-09-05T09:12:26.355Z,1368.00
2022-09-05T09:13:26.504Z,1436.00
2022-09-05T09:14:30.985Z,1468.00
2022-09-05T09:15:27.329Z,1480.00
2022-09-05T09:16:26.362Z,1448.00
2022-09-05T09:17:26.302Z,1476.00
2022-09-05T09:18:26.291Z,1432.00
2022-09-05T09:19:29.324Z,1384.00
2022-09-05T09:20:26.268Z,1344.00
2022-09-05T09:21:26.267Z,1300.00
2022-09-05T09:22:26.251Z,1296.00
2022-09-05T09:23:32.161Z,1284.00
2022-09-05T09:24:27.224Z,1256.00
2022-09-05T09:25:28.684Z,1228.00
2022-09-05T09:26:28.219Z,1296.00
2022-09-05T09:27:32.741Z,1316.00
2022-09-05T09:28:48.344Z,1304.00
2022-09-05T09:29:27.187Z,1364.00
2022-09-05T09:30:26.160Z,1372.00
2022-09-05T09:31:26.196Z,1360.00
2022-09-05T09:32:26.138Z,1356.00
2022-09-05T09:33:26.205Z,1356.00
2022-09-05T09:34:26.134Z,1364.00
2022-09-05T09:35:26.110Z,1400.00
2022-09-05T09:36:26.094Z,1408.00
2022-09-05T09:37:34.214Z,1424.00
2022-09-05T09:38:27.078Z,1444.00
2022-09-05T09:39:38.119Z,1460.00
2022-09-05T09:40:27.057Z,1452.00
2022-09-05T09:41:26.041Z,1440.00
2022-09-05T09:42:32.448Z,1432.00
2022-09-05T09:43:27.024Z,1468.00
2022-09-05T09:44:26.012Z,1484.00
2022-09-05T09:45:28.560Z,1500.00
2022-09-05T09:46:26.036Z,1540.00
2022-09-05T09:47:25.982Z,1552.00
2022-09-05T09:48:26.145Z,1568.00
2022-09-05T09:49:25.954Z,1568.00
2022-09-05T09:50:25.949Z,1584.00
2022-09-05T09:51:26.898Z,1584.00
2022-09-05T09:52:25.920Z,1596.00
2022-09-05T09:53:25.909Z,1608.00
2022-09-05T09:54:25.897Z,1628.00
2022-09-05T09:55:28.479Z,1628.00
2022-09-05T09:56:25.883Z,1620.00
2022-09-05T09:57:25.865Z,1656.00
2022-09-05T09:58:26.322Z,1696.00
2022-09-05T09:59:25.843Z,1716.00
2022-09-05T10:00:25.852Z,1744.00
2022-09-05T10:01:36.438Z,1760.00
2022-09-05T10:06:03.211Z,1768.00
2022-09-05T10:06:45.347Z,1748.00
2022-09-05T10:09:09.554Z,1740.00
2022-09-05T10:10:35.897Z,1720.00
2022-09-05T10:10:46.046Z,1736.00
2022-09-05T10:10:46.315Z,1748.00
2022-09-05T10:10:52.608Z,1804.00
2022-09-05T10:10:55.122Z,1720.00
2022-09-05T10:10:56.800Z,1724.00
2022-09-05T10:11:56.352Z,1828.00
2022-09-05T10:13:26.845Z,1856.00
2022-09-05T10:14:47.589Z,1892.00
2022-09-05T10:15:31.701Z,1880.00
2022-09-05T10:16:26.728Z,1888.00
2022-09-05T10:17:25.649Z,1888.00
2022-09-05T10:18:25.637Z,1888.00
2022-09-05T10:20:07.872Z,1964.00
2022-09-05T10:20:29.465Z,1940.00
2022-09-05T10:21:25.611Z,1912.00
2022-09-05T10:22:40.848Z,1896.00
2022-09-05T10:23:26.795Z,1884.00
2022-09-05T10:24:25.578Z,1916.00
2022-09-05T10:25:25.561Z,1964.00
2022-09-05T10:26:25.556Z,2016.00
2022-09-05T10:27:25.539Z,2048.00
2022-09-05T10:28:25.527Z,2064.00
2022-09-05T10:29:36.448Z,2104.00
2022-09-05T10:30:54.446Z,2100.00
2022-09-05T10:33:45.484Z,2116.00
2022-09-05T10:35:07.615Z,2088.00
2022-09-05T10:35:17.775Z,2172.00
2022-09-05T10:35:22.836Z,2120.00
2022-09-05T10:35:27.226Z,2152.00
2022-09-05T10:36:25.498Z,2204.00
2022-09-05T10:37:25.437Z,2188.00
2022-09-05T10:38:25.421Z,2236.00
2022-09-05T10:39:25.464Z,2228.00
2022-09-05T10:40:25.426Z,2232.00
2022-09-05T10:41:25.387Z,2284.00
2022-09-05T10:42:25.387Z,2324.00
2022-09-05T10:43:25.492Z,2372.00
2022-09-05T10:44:25.358Z,2400.00
2022-09-05T10:45:30.064Z,2444.00
2022-09-05T10:46:49.597Z,2480.00
2022-09-05T10:47:26.381Z,2516.00
2022-09-05T10:48:25.321Z,2572.00
2022-09-05T10:49:26.924Z,2644.00
2022-09-05T10:50:25.289Z,2812.00
2022-09-05T10:51:27.962Z,2276.00
2022-09-05T10:52:25.266Z,3460.00
2022-09-05T10:53:25.394Z,3288.00
2022-09-05T10:54:25.247Z,3164.00
2022-09-05T10:55:25.240Z,3184.00
2022-09-05T10:56:26.125Z,3256.00
2022-09-05T10:57:25.216Z,3312.00
2022-09-05T10:58:41.800Z,3268.00
2022-09-05T11:02:16.325Z,3408.00
2022-09-05T11:02:21.508Z,3448.00
2022-09-05T11:02:22.085Z,3440.00
2022-09-05T11:02:34.776Z,3308.00
2022-09-05T11:03:26.494Z,3436.00
2022-09-05T11:04:25.140Z,3476.00
2022-09-05T11:05:25.216Z,3600.00
2022-09-05T11:06:25.414Z,3600.00
2022-09-05T11:07:29.566Z,3520.00
2022-09-05T11:08:25.094Z,3744.00
2022-09-05T11:09:25.084Z,4428.00
2022-09-05T11:10:25.074Z,4516.00
2022-09-05T11:11:28.168Z,4364.00
2022-09-05T11:12:26.058Z,4560.00
2022-09-05T11:13:25.180Z,5056.00
2022-09-05T11:14:27.052Z,4584.00
2022-09-05T11:15:25.019Z,6400.00
2022-09-05T11:16:25.053Z,6244.00
2022-09-05T11:17:24.997Z,6668.00
2022-09-05T11:18:27.117Z,7616.00
2022-09-05T11:19:25.977Z,4044.00
2022-09-05T11:20:27.643Z,9628.00
2022-09-05T11:21:25.956Z,10952.00
2022-09-05T11:22:24.944Z,17408.00
2022-09-05T11:23:25.005Z,25472.00
2022-09-05T11:24:27.404Z,32000.00
2022-09-05T11:25:40.040Z,32224.00
2022-09-05T11:26:25.900Z,34432.00
2022-09-05T11:27:25.966Z,32640.00
2022-09-05T11:28:24.883Z,33824.00
2022-09-05T11:29:24.869Z,32864.00
2022-09-05T11:30:30.979Z,35808.00
2022-09-05T11:31:25.897Z,38016.00
2022-09-05T11:35:58.094Z,37856.00
2022-09-05T11:39:45.716Z,43392.00
2022-09-05T11:39:47.458Z,44320.00
2022-09-05T11:39:55.600Z,41792.00
2022-09-05T11:39:57.875Z,37696.00
2022-09-05T11:40:02.008Z,40704.00
2022-09-05T11:40:02.212Z,38944.00
2022-09-05T11:40:04.815Z,38688.00
2022-09-05T11:40:39.152Z,41344.00
2022-09-05T11:41:26.661Z,41664.00
2022-09-05T11:42:24.732Z,39520.00
2022-09-05T11:43:24.722Z,4400.00
2022-09-05T11:44:26.690Z,27744.00
2022-09-05T11:45:24.704Z,4432.00
2022-09-05T11:46:24.721Z,21248.00
2022-09-05T11:47:29.631Z,33600.00
2022-09-05T11:48:25.738Z,32736.00
2022-09-05T11:49:24.662Z,35456.00
2022-09-05T11:50:24.652Z,38560.00
2022-09-05T11:51:33.549Z,41056.00
2022-09-05T11:52:25.645Z,38944.00
2022-09-05T11:53:24.623Z,37440.00
2022-09-05T11:54:24.610Z,39040.00
2022-09-05T11:55:24.600Z,4444.00
2022-09-05T11:56:28.737Z,44864.00
2022-09-05T11:57:32.237Z,41056.00
2022-09-05T11:59:33.750Z,28448.00
2022-09-05T12:00:31.188Z,40704.00
2022-09-05T12:01:41.437Z,31968.00
2022-09-05T12:02:25.632Z,41248.00
2022-09-05T12:03:57.088Z,21472.00
2022-09-05T12:04:25.521Z,42880.00
2022-09-05T12:05:48.890Z,43392.00
2022-09-05T12:06:25.666Z,4532.00
2022-09-05T12:07:31.820Z,39168.00
2022-09-05T12:08:26.290Z,48928.00
2022-09-05T12:09:24.639Z,43840.00
2022-09-05T12:10:46.817Z,45024.00
2022-09-05T12:11:25.434Z,44640.00
2022-09-05T12:12:41.084Z,44064.00
2022-09-05T12:13:26.518Z,41472.00
2022-09-05T12:14:25.788Z,42336.00
2022-09-05T12:15:24.394Z,35744.00
2022-09-05T12:16:26.507Z,16656.00
2022-09-05T12:17:35.127Z,9420.00
2022-09-05T12:18:25.497Z,14644.00
2022-09-05T12:19:24.354Z,33952.00
2022-09-05T12:20:24.340Z,33312.00
2022-09-05T12:21:24.329Z,29248.00
2022-09-05T12:22:24.381Z,33312.00
2022-09-05T12:23:49.399Z,5380.00
2022-09-05T12:25:15.777Z,4400.00
2022-09-05T12:27:35.921Z,33472.00
2022-09-05T12:27:38.101Z,34848.00
2022-09-05T12:27:42.551Z,12748.00
2022-09-05T12:29:28.087Z,7488.00
2022-09-05T12:29:32.861Z,7392.00
2022-09-05T12:30:28.873Z,26976.00
2022-09-05T12:32:36.622Z,9236.00
2022-09-05T12:34:39.873Z,6472.00
2022-09-05T12:36:05.995Z,42784.00
2022-09-05T12:36:06.247Z,38976.00
2022-09-05T12:36:12.191Z,41440.00
2022-09-05T12:40:46.171Z,38336.00
2022-09-05T12:40:52.053Z,36832.00
2022-09-05T12:40:53.918Z,40384.00